createdAt,value
2022-09-23T00:00:33.856Z,0.00
2022-09-23T00:01:34.126Z,0.00
2022-09-23T00:02:35.099Z,0.00
2022-09-23T00:03:33.783Z,0.00
2022-09-23T00:04:33.996Z,0.00
2022-09-23T00:05:33.762Z,0.00
2022-09-23T00:06:33.760Z,0.00
2022-09-23T00:07:40.849Z,0.00
2022-09-23T00:08:34.928Z,0.00
2022-09-23T00:09:33.936Z,0.00
2022-09-23T00:10:34.717Z,0.00
2022-09-23T00:11:49.398Z,0.00
2022-09-23T00:12:33.704Z,0.00
2022-09-23T00:13:33.888Z,0.00
2022-09-23T00:14:41.167Z,0.00
2022-09-23T00:15:34.114Z,0.00
2022-09-23T00:16:33.709Z,0.00
2022-09-23T00:17:33.638Z,0.00
2022-09-23T00:18:33.626Z,0.00
2022-09-23T00:19:33.621Z,0.00
2022-09-23T00:20:36.644Z,0.00
2022-09-23T00:21:33.816Z,0.00
2022-09-23T00:22:33.854Z,0.00
2022-09-23T00:23:33.800Z,0.00
2022-09-23T00:24:33.552Z,0.00
2022-09-23T00:25:33.541Z,0.00
2022-09-23T00:26:33.780Z,0.00
2022-09-23T00:27:33.520Z,0.00
2022-09-23T00:28:36.606Z,0.00
2022-09-23T00:29:36.533Z,0.00
2022-09-23T00:30:33.501Z,0.00
2022-09-23T00:31:34.515Z,0.00
2022-09-23T00:32:34.740Z,0.00
2022-09-23T00:33:33.705Z,0.00
2022-09-23T00:34:36.494Z,0.00
2022-09-23T00:35:33.436Z,0.00
2022-09-23T00:36:33.441Z,0.00
2022-09-23T00:37:33.663Z,0.00
2022-09-23T00:38:33.416Z,0.00
2022-09-23T00:39:34.641Z,0.00
2022-09-23T00:40:33.418Z,0.00
2022-09-23T00:41:33.385Z,0.00
2022-09-23T00:42:34.362Z,0.00
2022-09-23T00:43:33.342Z,0.00
2022-09-23T00:44:33.370Z,0.00
2022-09-23T00:45:33.363Z,0.00
2022-09-23T00:46:34.609Z,0.00
2022-09-23T00:47:33.314Z,0.00
2022-09-23T00:48:36.588Z,0.00
2022-09-23T00:49:33.542Z,0.00
2022-09-23T00:50:33.541Z,0.00
2022-09-23T00:51:33.497Z,0.00
2022-09-23T00:52:36.333Z,0.00
2022-09-23T00:53:33.491Z,0.00
2022-09-23T00:54:33.439Z,0.00
2022-09-23T00:55:33.485Z,0.00
2022-09-23T00:56:34.448Z,0.00
2022-09-23T00:57:36.486Z,0.00
2022-09-23T00:58:36.475Z,0.00
2022-09-23T00:59:33.431Z,0.00
2022-09-23T01:00:33.232Z,0.00
2022-09-23T01:01:36.533Z,0.00
2022-09-23T01:02:34.772Z,0.00
2022-09-23T01:03:33.185Z,0.00
2022-09-23T01:04:33.141Z,0.00
2022-09-23T01:05:36.160Z,0.00
2022-09-23T01:06:36.128Z,0.00
2022-09-23T01:07:33.102Z,0.00
2022-09-23T01:08:34.103Z,0.00
2022-09-23T01:09:33.318Z,0.00
2022-09-23T01:10:33.087Z,0.00
2022-09-23T01:11:33.314Z,0.00
2022-09-23T01:12:48.289Z,0.00
2022-09-23T01:13:33.038Z,0.00
2022-09-23T01:14:34.272Z,0.00
2022-09-23T01:15:36.543Z,0.00
2022-09-23T01:16:33.069Z,0.00
2022-09-23T01:17:33.003Z,0.00
2022-09-23T01:18:34.011Z,0.00
2022-09-23T01:19:36.033Z,0.00
2022-09-23T01:20:33.165Z,0.00
2022-09-23T01:21:33.976Z,0.00
2022-09-23T01:22:33.210Z,0.00
2022-09-23T01:23:33.937Z,0.00
2022-09-23T01:24:32.937Z,0.00
2022-09-23T01:25:32.929Z,0.00
2022-09-23T01:26:33.120Z,0.00
2022-09-23T01:27:33.159Z,0.00
2022-09-23T01:28:35.928Z,0.00
2022-09-23T01:29:34.105Z,0.00
2022-09-23T01:30:33.913Z,0.00
2022-09-23T01:31:32.911Z,0.00
2022-09-23T01:32:32.834Z,0.00
2022-09-23T01:33:32.816Z,0.00
2022-09-23T01:34:32.829Z,0.00
2022-09-23T01:35:36.087Z,0.00
2022-09-23T01:36:48.261Z,0.00
2022-09-23T01:37:32.821Z,0.00
2022-09-23T01:38:33.788Z,0.00
2022-09-23T01:39:32.769Z,0.00
2022-09-23T01:40:32.828Z,0.00
2022-09-23T01:41:33.761Z,0.00
2022-09-23T01:42:32.736Z,0.00
2022-09-23T01:43:32.718Z,0.00
2022-09-23T01:44:32.986Z,0.00
2022-09-23T01:45:32.969Z,0.00
2022-09-23T01:46:35.695Z,0.00
2022-09-23T01:47:32.682Z,0.00
2022-09-23T01:48:32.742Z,0.00
2022-09-23T01:49:32.929Z,0.00
2022-09-23T01:50:32.867Z,0.00
2022-09-23T01:51:33.891Z,0.00
2022-09-23T01:52:32.643Z,0.00
2022-09-23T01:53:33.626Z,0.00
2022-09-23T01:54:32.824Z,0.00
2022-09-23T01:55:32.588Z,0.00
2022-09-23T01:56:33.621Z,0.00
2022-09-23T01:57:32.599Z,0.00
2022-09-23T01:58:32.822Z,0.00
2022-09-23T01:59:32.562Z,0.00
2022-09-23T02:00:35.583Z,0.00
2022-09-23T02:01:32.592Z,0.00
2022-09-23T02:02:32.580Z,0.00
2022-09-23T02:03:33.510Z,0.00
2022-09-23T02:04:32.508Z,0.00
2022-09-23T02:05:32.520Z,0.00
2022-09-23T02:06:33.497Z,0.00
2022-09-23T02:07:32.480Z,0.00
2022-09-23T02:08:35.491Z,0.00
2022-09-23T02:09:33.472Z,0.00
2022-09-23T02:10:32.463Z,0.00
2022-09-23T02:11:32.453Z,0.00
2022-09-23T02:12:32.432Z,0.00
2022-09-23T02:13:32.418Z,0.00
2022-09-23T02:14:32.402Z,0.00
2022-09-23T02:15:32.454Z,0.00
2022-09-23T02:16:33.458Z,0.00
2022-09-23T02:17:33.448Z,0.00
2022-09-23T02:18:47.784Z,0.00
2022-09-23T02:19:32.354Z,0.00
2022-09-23T02:20:32.357Z,0.00
2022-09-23T02:21:32.354Z,0.00
2022-09-23T02:22:32.303Z,0.00
2022-09-23T02:23:32.555Z,0.00
2022-09-23T02:24:32.508Z,0.00
2022-09-23T02:25:32.572Z,0.00
2022-09-23T02:26:32.497Z,0.00
2022-09-23T02:27:35.290Z,0.00
2022-09-23T02:28:32.257Z,0.00
2022-09-23T02:29:32.246Z,0.00
2022-09-23T02:30:32.484Z,0.00
2022-09-23T02:31:32.249Z,0.00
2022-09-23T02:32:32.457Z,0.00
2022-09-23T02:33:32.202Z,0.00
2022-09-23T02:34:35.213Z,0.00
2022-09-23T02:35:35.249Z,0.00
2022-09-23T02:36:32.387Z,0.00
2022-09-23T02:37:32.415Z,0.00
2022-09-23T02:38:32.375Z,0.00
2022-09-23T02:39:32.345Z,0.00
2022-09-23T02:40:33.212Z,0.00
2022-09-23T02:41:32.345Z,0.00
2022-09-23T02:42:39.544Z,0.00
2022-09-23T02:43:32.133Z,0.00
2022-09-23T02:44:35.106Z,0.00
2022-09-23T02:45:39.544Z,0.00
2022-09-23T02:46:39.405Z,0.00
2022-09-23T02:47:32.065Z,0.00
2022-09-23T02:48:32.043Z,0.00
2022-09-23T02:49:35.109Z,0.00
2022-09-23T02:50:32.036Z,0.00
2022-09-23T02:51:32.280Z,0.00
2022-09-23T02:52:32.258Z,0.00
2022-09-23T02:53:33.506Z,0.00
2022-09-23T02:54:33.004Z,0.00
2022-09-23T02:55:31.964Z,0.00
2022-09-23T02:56:31.976Z,0.00
2022-09-23T02:57:32.182Z,0.00
2022-09-23T02:58:32.193Z,0.00
2022-09-23T02:59:32.161Z,0.00
2022-09-23T03:00:31.945Z,0.00
2022-09-23T03:01:32.029Z,0.00
2022-09-23T03:02:31.961Z,0.00
2022-09-23T03:03:39.072Z,0.00
2022-09-23T03:04:31.880Z,0.00
2022-09-23T03:05:31.865Z,0.00
2022-09-23T03:06:32.074Z,0.00
2022-09-23T03:07:32.089Z,0.00
2022-09-23T03:08:31.815Z,0.00
2022-09-23T03:09:32.068Z,0.00
2022-09-23T03:10:32.047Z,0.00
2022-09-23T03:11:35.070Z,0.00
2022-09-23T03:12:31.838Z,0.00
2022-09-23T03:13:34.788Z,0.00
2022-09-23T03:14:31.780Z,0.00
2022-09-23T03:15:31.747Z,0.00
2022-09-23T03:16:32.859Z,0.00
2022-09-23T03:17:31.773Z,0.00
2022-09-23T03:18:32.982Z,0.00
2022-09-23T03:19:32.771Z,0.00
2022-09-23T03:20:34.745Z,0.00
2022-09-23T03:21:31.760Z,0.00
2022-09-23T03:22:31.942Z,0.00
2022-09-23T03:23:32.692Z,0.00
2022-09-23T03:24:32.691Z,0.00
2022-09-23T03:25:31.667Z,0.00
2022-09-23T03:26:32.892Z,0.00
2022-09-23T03:27:31.612Z,0.00
2022-09-23T03:28:31.850Z,0.00
2022-09-23T03:29:31.609Z,0.00
2022-09-23T03:30:31.646Z,0.00
2022-09-23T03:31:31.892Z,0.00
2022-09-23T03:32:32.841Z,0.00
2022-09-23T03:33:34.587Z,0.00
2022-09-23T03:34:34.598Z,0.00
2022-09-23T03:35:34.607Z,0.00
2022-09-23T03:36:31.541Z,0.00
2022-09-23T03:37:32.215Z,0.00
2022-09-23T03:38:31.796Z,0.00
2022-09-23T03:39:31.514Z,0.00
2022-09-23T03:40:31.564Z,0.00
2022-09-23T03:41:31.493Z,0.00
2022-09-23T03:42:32.500Z,0.00
2022-09-23T03:43:39.104Z,0.00
2022-09-23T03:44:31.449Z,0.00
2022-09-23T03:45:31.483Z,0.00
2022-09-23T03:46:34.454Z,0.00
2022-09-23T03:47:31.423Z,0.00
2022-09-23T03:48:31.648Z,0.00
2022-09-23T03:49:34.409Z,0.00
2022-09-23T03:50:31.416Z,0.00
2022-09-23T03:51:31.613Z,0.00
2022-09-23T03:52:31.379Z,0.00
2022-09-23T03:53:31.579Z,0.00
2022-09-23T03:54:31.583Z,0.00
2022-09-23T03:55:31.350Z,0.00
2022-09-23T03:56:31.556Z,0.00
2022-09-23T03:57:31.299Z,0.00
2022-09-23T03:58:32.333Z,0.00
2022-09-23T03:59:31.313Z,0.00
2022-09-23T04:00:31.597Z,0.00
2022-09-23T04:01:32.306Z,0.00
2022-09-23T04:02:31.285Z,0.00
2022-09-23T04:03:32.534Z,0.00
2022-09-23T04:04:38.534Z,0.00
2022-09-23T04:05:31.257Z,0.00
2022-09-23T04:06:31.226Z,0.00
2022-09-23T04:07:32.443Z,0.00
2022-09-23T04:08:32.685Z,0.00
2022-09-23T04:09:32.457Z,0.00
2022-09-23T04:10:31.176Z,0.00
2022-09-23T04:11:31.205Z,0.00
2022-09-23T04:12:38.264Z,0.00
2022-09-23T04:13:32.387Z,0.00
2022-09-23T04:14:32.378Z,0.00
2022-09-23T04:15:32.145Z,0.00
2022-09-23T04:16:31.475Z,20.00
2022-09-23T04:17:31.168Z,0.00
2022-09-23T04:18:31.115Z,0.00
2022-09-23T04:19:31.076Z,0.00
2022-09-23T04:20:31.343Z,0.00
2022-09-23T04:21:31.065Z,0.00
2022-09-23T04:22:52.324Z,0.00
2022-09-23T04:23:34.067Z,0.00
2022-09-23T04:24:34.062Z,0.00
2022-09-23T04:25:31.041Z,0.00
2022-09-23T04:26:31.008Z,0.00
2022-09-23T04:27:35.434Z,0.00
2022-09-23T04:28:32.000Z,0.00
2022-09-23T04:29:38.397Z,0.00
2022-09-23T04:30:30.967Z,0.00
2022-09-23T04:31:30.998Z,0.00
2022-09-23T04:32:32.216Z,0.00
2022-09-23T04:33:30.985Z,0.00
2022-09-23T04:34:30.952Z,0.00
2022-09-23T04:35:37.954Z,0.00
2022-09-23T04:36:34.957Z,0.00
2022-09-23T04:37:33.941Z,0.00
2022-09-23T04:38:30.906Z,0.00
2022-09-23T04:39:30.882Z,0.00
2022-09-23T04:40:30.917Z,0.00
2022-09-23T04:41:38.029Z,0.00
2022-09-23T04:42:31.869Z,0.00
2022-09-23T04:43:30.849Z,0.00
2022-09-23T04:44:30.865Z,0.00
2022-09-23T04:45:31.052Z,0.00
2022-09-23T04:46:31.105Z,4.00
2022-09-23T04:47:31.822Z,0.00
2022-09-23T04:48:32.051Z,0.00
2022-09-23T04:49:30.806Z,4.00
2022-09-23T04:50:37.920Z,4.00
2022-09-23T04:51:30.770Z,4.00
2022-09-23T04:52:30.730Z,4.00
2022-09-23T04:53:30.722Z,4.00
2022-09-23T04:54:31.730Z,4.00
2022-09-23T04:55:30.733Z,8.00
2022-09-23T04:56:31.921Z,8.00
2022-09-23T04:57:31.770Z,8.00
2022-09-23T04:58:30.907Z,12.00
2022-09-23T04:59:31.753Z,12.00
2022-09-23T05:00:30.718Z,16.00
2022-09-23T05:01:30.697Z,16.00
2022-09-23T05:02:31.972Z,20.00
2022-09-23T05:03:30.875Z,24.00
2022-09-23T05:04:33.640Z,24.00
2022-09-23T05:05:30.639Z,32.00
2022-09-23T05:06:30.620Z,36.00
2022-09-23T05:07:30.615Z,36.00
2022-09-23T05:08:30.588Z,40.00
2022-09-23T05:09:30.553Z,44.00
2022-09-23T05:10:33.581Z,52.00
2022-09-23T05:11:30.562Z,60.00
2022-09-23T05:12:30.819Z,60.00
2022-09-23T05:13:31.534Z,64.00
2022-09-23T05:14:58.686Z,72.00
2022-09-23T05:15:33.564Z,76.00
2022-09-23T05:16:30.803Z,80.00
2022-09-23T05:17:30.528Z,88.00
2022-09-23T05:18:30.452Z,96.00
2022-09-23T05:19:30.461Z,104.00
2022-09-23T05:20:31.475Z,112.00
2022-09-23T05:21:30.428Z,120.00
2022-09-23T05:22:30.621Z,128.00
2022-09-23T05:23:30.415Z,136.00
2022-09-23T05:24:37.715Z,144.00
2022-09-23T05:25:33.163Z,156.00
2022-09-23T05:26:33.426Z,172.00
2022-09-23T05:27:30.626Z,188.00
2022-09-23T05:28:51.612Z,204.00
2022-09-23T05:29:30.590Z,224.00
2022-09-23T05:30:30.369Z,236.00
2022-09-23T05:31:31.493Z,252.00
2022-09-23T05:32:31.575Z,260.00
2022-09-23T05:33:30.337Z,272.00
2022-09-23T05:34:31.564Z,284.00
2022-09-23T05:35:33.313Z,304.00
2022-09-23T05:36:52.283Z,324.00
2022-09-23T05:37:30.299Z,340.00
2022-09-23T05:38:30.285Z,356.00
2022-09-23T05:39:30.475Z,368.00
2022-09-23T05:40:30.295Z,384.00
2022-09-23T05:41:33.463Z,392.00
2022-09-23T05:42:30.458Z,400.00
2022-09-23T05:43:30.257Z,404.00
2022-09-23T05:44:30.237Z,408.00
2022-09-23T05:45:30.185Z,416.00
2022-09-23T05:46:31.287Z,428.00
2022-09-23T05:47:30.173Z,440.00
2022-09-23T05:48:30.158Z,456.00
2022-09-23T05:49:48.641Z,472.00
2022-09-23T05:50:31.368Z,484.00
2022-09-23T05:51:37.435Z,496.00
2022-09-23T05:52:30.118Z,512.00
2022-09-23T05:53:31.108Z,520.00
2022-09-23T05:54:30.350Z,524.00
2022-09-23T05:55:30.080Z,536.00
2022-09-23T05:56:30.096Z,540.00
2022-09-23T05:57:30.057Z,552.00
2022-09-23T05:58:30.067Z,560.00
2022-09-23T05:59:30.076Z,568.00
2022-09-23T06:00:30.035Z,572.00
2022-09-23T06:01:30.048Z,576.00
2022-09-23T06:02:30.025Z,576.00
2022-09-23T06:03:33.048Z,572.00
2022-09-23T06:04:33.004Z,576.00
2022-09-23T06:05:29.994Z,584.00
2022-09-23T06:06:29.976Z,588.00
2022-09-23T06:07:30.206Z,604.00
2022-09-23T06:08:29.952Z,616.00
2022-09-23T06:09:36.230Z,632.00
2022-09-23T06:10:31.189Z,656.00
2022-09-23T06:11:30.143Z,676.00
2022-09-23T06:12:37.430Z,696.00
2022-09-23T06:13:30.123Z,720.00
2022-09-23T06:14:30.126Z,744.00
2022-09-23T06:15:29.859Z,780.00
2022-09-23T06:16:29.947Z,820.00
2022-09-23T06:17:33.107Z,872.00
2022-09-23T06:19:03.039Z,932.00
2022-09-23T06:19:31.072Z,992.00
2022-09-23T06:20:29.843Z,1060.00
2022-09-23T06:21:29.829Z,1148.00
2022-09-23T06:22:29.836Z,1232.00
2022-09-23T06:23:30.802Z,1308.00
2022-09-23T06:24:31.638Z,1376.00
2022-09-23T06:25:29.762Z,1448.00
2022-09-23T06:26:32.812Z,1524.00
2022-09-23T06:27:30.999Z,1600.00
2022-09-23T06:28:32.753Z,1672.00
2022-09-23T06:29:30.745Z,1744.00
2022-09-23T06:30:29.963Z,1788.00
2022-09-23T06:31:29.811Z,1820.00
2022-09-23T06:32:31.027Z,1832.00
2022-09-23T06:33:37.100Z,1828.00
2022-09-23T06:34:30.776Z,1800.00
2022-09-23T06:35:32.966Z,1760.00
2022-09-23T06:36:46.428Z,1720.00
2022-09-23T06:37:29.645Z,1676.00
2022-09-23T06:38:50.645Z,1632.00
2022-09-23T06:39:32.889Z,1588.00
2022-09-23T06:40:37.065Z,1564.00
2022-09-23T06:41:30.760Z,1552.00
2022-09-23T06:42:29.615Z,1548.00
2022-09-23T06:43:29.564Z,1548.00
2022-09-23T06:44:32.613Z,1548.00
2022-09-23T06:45:30.558Z,1560.00
2022-09-23T06:46:29.836Z,1568.00
2022-09-23T06:47:29.548Z,1584.00
2022-09-23T06:48:29.525Z,1604.00
2022-09-23T06:49:30.525Z,1616.00
2022-09-23T06:50:29.505Z,1640.00
2022-09-23T06:51:30.500Z,1660.00
2022-09-23T06:52:36.713Z,1684.00
2022-09-23T06:53:29.504Z,1712.00
2022-09-23T06:54:30.494Z,1740.00
2022-09-23T06:55:29.486Z,1764.00
2022-09-23T06:56:31.496Z,1784.00
2022-09-23T06:57:30.450Z,1808.00
2022-09-23T06:58:29.450Z,1832.00
2022-09-23T06:59:29.459Z,1852.00
2022-09-23T07:00:36.645Z,1864.00
2022-09-23T07:01:29.726Z,1872.00
2022-09-23T07:02:44.761Z,1880.00
2022-09-23T07:03:29.376Z,1888.00
2022-09-23T07:04:29.543Z,1904.00
2022-09-23T07:05:36.410Z,1916.00
2022-09-23T07:06:32.387Z,1936.00
2022-09-23T07:07:29.571Z,1952.00
2022-09-23T07:08:29.316Z,1980.00
2022-09-23T07:09:29.325Z,2004.00
2022-09-23T07:10:30.313Z,2032.00
2022-09-23T07:11:29.509Z,2060.00
2022-09-23T07:12:30.509Z,2088.00
2022-09-23T07:13:36.410Z,2112.00
2022-09-23T07:14:29.505Z,2132.00
2022-09-23T07:15:51.544Z,2152.00
2022-09-23T07:16:29.284Z,2176.00
2022-09-23T07:17:51.495Z,2188.00
2022-09-23T07:18:32.020Z,2200.00
2022-09-23T07:19:30.245Z,2208.00
2022-09-23T07:20:29.205Z,2216.00
2022-09-23T07:21:29.173Z,2224.00
2022-09-23T07:22:30.399Z,2232.00
2022-09-23T07:23:29.160Z,2236.00
2022-09-23T07:24:29.369Z,2240.00
2022-09-23T07:25:29.173Z,2244.00
2022-09-23T07:26:50.123Z,2244.00
2022-09-23T07:27:29.385Z,2244.00
2022-09-23T07:28:29.189Z,2244.00
2022-09-23T07:29:32.912Z,2236.00
2022-09-23T07:30:30.104Z,2236.00
2022-09-23T07:31:38.565Z,2224.00
2022-09-23T07:32:47.618Z,2212.00
2022-09-23T07:33:32.465Z,2208.00
2022-09-23T07:34:29.287Z,2196.00
2022-09-23T07:35:29.297Z,2176.00
2022-09-23T07:36:36.211Z,2148.00
2022-09-23T07:37:29.237Z,2120.00
2022-09-23T07:38:29.252Z,2092.00
2022-09-23T07:39:29.009Z,2064.00
2022-09-23T07:40:29.076Z,2036.00
2022-09-23T07:41:29.195Z,2008.00
2022-09-23T07:42:28.962Z,1988.00
2022-09-23T07:43:29.174Z,1972.00
2022-09-23T07:44:28.961Z,1956.00
2022-09-23T07:45:44.319Z,1936.00
2022-09-23T07:46:29.246Z,1916.00
2022-09-23T07:47:28.923Z,1904.00
2022-09-23T07:48:36.077Z,1888.00
2022-09-23T07:49:29.128Z,1872.00
2022-09-23T07:50:29.105Z,1860.00
2022-09-23T07:51:34.809Z,1856.00
2022-09-23T07:52:30.071Z,1844.00
2022-09-23T07:53:28.836Z,1828.00
2022-09-23T07:54:44.437Z,1816.00
2022-09-23T07:55:29.055Z,1804.00
2022-09-23T07:56:29.070Z,1804.00
2022-09-23T07:57:29.041Z,1816.00
2022-09-23T07:58:30.044Z,1824.00
2022-09-23T07:59:28.808Z,1840.00
2022-09-23T08:00:28.761Z,1852.00
2022-09-23T08:01:29.056Z,1856.00
2022-09-23T08:02:28.789Z,1844.00
2022-09-23T08:03:31.765Z,1864.00
2022-09-23T08:04:31.765Z,1880.00
2022-09-23T08:05:28.703Z,1900.00
2022-09-23T08:06:31.743Z,1936.00
2022-09-23T08:07:28.933Z,1944.00
2022-09-23T08:08:28.712Z,1944.00
2022-09-23T08:09:29.919Z,1960.00
2022-09-23T08:10:31.698Z,1992.00
2022-09-23T08:11:28.656Z,2040.00
2022-09-23T08:12:28.663Z,2148.00
2022-09-23T08:13:28.632Z,2268.00
2022-09-23T08:14:36.099Z,2372.00
2022-09-23T08:15:31.706Z,2460.00
2022-09-23T08:16:28.652Z,2500.00
2022-09-23T08:17:28.625Z,2544.00
2022-09-23T08:18:28.809Z,2616.00
2022-09-23T08:19:28.595Z,2696.00
2022-09-23T08:20:28.587Z,2780.00
2022-09-23T08:21:28.787Z,2848.00
2022-09-23T08:22:28.568Z,2904.00
2022-09-23T08:23:28.538Z,2948.00
2022-09-23T08:24:28.504Z,2964.00
2022-09-23T08:25:32.428Z,2980.00
2022-09-23T08:26:28.794Z,3000.00
2022-09-23T08:27:28.528Z,3024.00
2022-09-23T08:28:28.473Z,3028.00
2022-09-23T08:29:28.471Z,3008.00
2022-09-23T08:30:28.459Z,2992.00
2022-09-23T08:31:29.430Z,2964.00
2022-09-23T08:32:29.428Z,2936.00
2022-09-23T08:33:28.690Z,2928.00
2022-09-23T08:34:28.415Z,2924.00
2022-09-23T08:35:28.669Z,2896.00
2022-09-23T08:36:28.615Z,2844.00
2022-09-23T08:37:29.425Z,2788.00
2022-09-23T08:38:28.405Z,2728.00
2022-09-23T08:39:29.356Z,2684.00
2022-09-23T08:40:29.487Z,2628.00
2022-09-23T08:41:35.791Z,2584.00
2022-09-23T08:42:29.332Z,2540.00
2022-09-23T08:43:28.334Z,2480.00
2022-09-23T08:44:28.336Z,2420.00
2022-09-23T08:45:28.510Z,2400.00
2022-09-23T08:46:50.310Z,2392.00
2022-09-23T08:47:28.290Z,2376.00
2022-09-23T08:48:28.259Z,2380.00
2022-09-23T08:49:28.749Z,2388.00
2022-09-23T08:50:29.280Z,2392.00
2022-09-23T08:51:28.474Z,2408.00
2022-09-23T08:52:29.463Z,2432.00
2022-09-23T08:53:29.464Z,2464.00
2022-09-23T08:54:28.220Z,2492.00
2022-09-23T08:55:31.236Z,2528.00
2022-09-23T08:56:29.417Z,2572.00
2022-09-23T08:57:28.172Z,2600.00
2022-09-23T08:58:28.386Z,2640.00
2022-09-23T08:59:28.411Z,2644.00
2022-09-23T09:00:28.165Z,2660.00
2022-09-23T09:01:28.199Z,2676.00
2022-09-23T09:02:28.463Z,2684.00
2022-09-23T09:03:29.146Z,2684.00
2022-09-23T09:04:28.139Z,2680.00
2022-09-23T09:05:29.111Z,2740.00
2022-09-23T09:06:28.089Z,2764.00
2022-09-23T09:07:37.693Z,2768.00
2022-09-23T09:08:29.069Z,2792.00
2022-09-23T09:09:28.071Z,2788.00
2022-09-23T09:10:31.377Z,2772.00
2022-09-23T09:11:28.269Z,2784.00
2022-09-23T09:12:49.020Z,2736.00
2022-09-23T09:13:28.184Z,2676.00
2022-09-23T09:14:28.216Z,2604.00
2022-09-23T09:15:28.337Z,2540.00
2022-09-23T09:16:55.525Z,2484.00
2022-09-23T09:17:32.997Z,2428.00
2022-09-23T09:18:36.071Z,2376.00
2022-09-23T09:19:27.949Z,2348.00
2022-09-23T09:20:35.090Z,2312.00
2022-09-23T09:21:27.937Z,2316.00
2022-09-23T09:22:28.173Z,2352.00
2022-09-23T09:23:29.147Z,2352.00
2022-09-23T09:24:35.214Z,2340.00
2022-09-23T09:25:32.133Z,2356.00
2022-09-23T09:26:30.078Z,2360.00
2022-09-23T09:27:27.845Z,2348.00
2022-09-23T09:28:27.839Z,2332.00
2022-09-23T09:29:35.543Z,2304.00
2022-09-23T09:30:29.075Z,2240.00
2022-09-23T09:31:28.097Z,2184.00
2022-09-23T09:32:28.035Z,2148.00
2022-09-23T09:33:28.878Z,2132.00
2022-09-23T09:34:28.023Z,2116.00
2022-09-23T09:35:29.001Z,2100.00
2022-09-23T09:36:27.791Z,2080.00
2022-09-23T09:37:31.443Z,2052.00
2022-09-23T09:38:28.753Z,2020.00
2022-09-23T09:39:28.751Z,1988.00
2022-09-23T09:40:28.858Z,1956.00
2022-09-23T09:41:28.005Z,1920.00
2022-09-23T09:42:30.941Z,1892.00
2022-09-23T09:43:48.698Z,1844.00
2022-09-23T09:44:28.706Z,1808.00
2022-09-23T09:45:33.383Z,1784.00
2022-09-23T09:46:30.940Z,1768.00
2022-09-23T09:47:27.664Z,1744.00
2022-09-23T09:48:30.727Z,1704.00
2022-09-23T09:49:28.639Z,1672.00
2022-09-23T09:50:27.600Z,1648.00
2022-09-23T09:51:27.820Z,1620.00
2022-09-23T09:52:27.833Z,1604.00
2022-09-23T09:53:27.520Z,1588.00
2022-09-23T09:54:30.560Z,1580.00
2022-09-23T09:55:28.520Z,1576.00
2022-09-23T09:56:27.520Z,1584.00
2022-09-23T09:57:30.735Z,1560.00
2022-09-23T09:58:29.520Z,1556.00
2022-09-23T09:59:27.717Z,1572.00
2022-09-23T10:00:27.529Z,1576.00
2022-09-23T10:01:27.446Z,1588.00
2022-09-23T10:02:27.676Z,1608.00
2022-09-23T10:03:27.440Z,1624.00
2022-09-23T10:04:27.445Z,1648.00
2022-09-23T10:05:28.408Z,1692.00
2022-09-23T10:06:27.405Z,1700.00
2022-09-23T10:07:27.616Z,1744.00
2022-09-23T10:08:27.370Z,1772.00
2022-09-23T10:09:27.347Z,1824.00
2022-09-23T10:10:34.443Z,1856.00
2022-09-23T10:11:29.352Z,1896.00
2022-09-23T10:12:27.334Z,1948.00
2022-09-23T10:13:27.323Z,1984.00
2022-09-23T10:14:27.985Z,2020.00
2022-09-23T10:15:27.302Z,2048.00
2022-09-23T10:16:27.372Z,2084.00
2022-09-23T10:17:28.538Z,2120.00
2022-09-23T10:18:34.534Z,2156.00
2022-09-23T10:19:27.500Z,2224.00
2022-09-23T10:20:27.464Z,2232.00
2022-09-23T10:21:30.236Z,2248.00
2022-09-23T10:22:27.434Z,2256.00
2022-09-23T10:23:28.458Z,2232.00
2022-09-23T10:24:27.212Z,2216.00
2022-09-23T10:25:27.161Z,2188.00
2022-09-23T10:26:27.394Z,2172.00
2022-09-23T10:27:27.406Z,2156.00
2022-09-23T10:28:30.411Z,2128.00
2022-09-23T10:29:27.417Z,2092.00
2022-09-23T10:30:30.457Z,2064.00
2022-09-23T10:31:34.292Z,2028.00
2022-09-23T10:32:30.363Z,1984.00
2022-09-23T10:33:27.098Z,1948.00
2022-09-23T10:34:27.103Z,1948.00
2022-09-23T10:35:27.344Z,1924.00
2022-09-23T10:36:30.315Z,1908.00
2022-09-23T10:37:27.074Z,1880.00
2022-09-23T10:38:27.040Z,1848.00
2022-09-23T10:39:27.090Z,1820.00
2022-09-23T10:40:27.070Z,1780.00
2022-09-23T10:41:28.056Z,1752.00
2022-09-23T10:42:27.241Z,1732.00
2022-09-23T10:43:27.020Z,1716.00
2022-09-23T10:44:34.064Z,1696.00
2022-09-23T10:45:27.012Z,1680.00
2022-09-23T10:46:27.296Z,1648.00
2022-09-23T10:47:26.966Z,1632.00
2022-09-23T10:48:27.190Z,1640.00
2022-09-23T10:49:27.956Z,1604.00
2022-09-23T10:50:27.178Z,1624.00
2022-09-23T10:51:27.161Z,1640.00
2022-09-23T10:52:26.909Z,1652.00
2022-09-23T10:53:33.970Z,1620.00
2022-09-23T10:54:27.887Z,1580.00
2022-09-23T10:55:26.883Z,1560.00
2022-09-23T10:56:27.112Z,1508.00
2022-09-23T10:57:34.091Z,1476.00
2022-09-23T10:58:26.839Z,1436.00
2022-09-23T10:59:27.888Z,1376.00
2022-09-23T11:00:27.862Z,1336.00
2022-09-23T11:01:27.146Z,1328.00
2022-09-23T11:02:27.065Z,1324.00
2022-09-23T11:03:26.785Z,1316.00
2022-09-23T11:04:27.052Z,1300.00
2022-09-23T11:05:27.022Z,1280.00
2022-09-23T11:06:27.013Z,1268.00
2022-09-23T11:07:26.767Z,1260.00
2022-09-23T11:08:26.978Z,1256.00
2022-09-23T11:09:27.020Z,1240.00
2022-09-23T11:10:47.865Z,1224.00
2022-09-23T11:11:29.744Z,1224.00
2022-09-23T11:12:29.733Z,1228.00
2022-09-23T11:13:26.712Z,1224.00
2022-09-23T11:14:33.719Z,1244.00
2022-09-23T11:15:26.680Z,1228.00
2022-09-23T11:16:26.701Z,1224.00
2022-09-23T11:17:26.655Z,1220.00
2022-09-23T11:18:26.668Z,1208.00
2022-09-23T11:19:26.665Z,1196.00
2022-09-23T11:20:27.677Z,1196.00
2022-09-23T11:21:26.643Z,1200.00
2022-09-23T11:22:26.611Z,1204.00
2022-09-23T11:23:26.600Z,1216.00
2022-09-23T11:24:26.583Z,1220.00
2022-09-23T11:25:27.591Z,1232.00
2022-09-23T11:26:33.076Z,1248.00
2022-09-23T11:27:29.624Z,1252.00
2022-09-23T11:28:27.541Z,1268.00
2022-09-23T11:29:27.553Z,1288.00
2022-09-23T11:30:26.587Z,1320.00
2022-09-23T11:31:33.631Z,1344.00
2022-09-23T11:32:26.491Z,1356.00
2022-09-23T11:33:26.487Z,1368.00
2022-09-23T11:34:26.724Z,1380.00
2022-09-23T11:35:33.761Z,1396.00
2022-09-23T11:36:27.486Z,1416.00
2022-09-23T11:37:26.685Z,1460.00
2022-09-23T11:38:26.661Z,1472.00
2022-09-23T11:39:26.449Z,1488.00
2022-09-23T11:40:26.671Z,1516.00
2022-09-23T11:41:26.432Z,1548.00
2022-09-23T11:42:42.023Z,1600.00
2022-09-23T11:43:26.411Z,1640.00
2022-09-23T11:44:26.619Z,1660.00
2022-09-23T11:45:26.600Z,1660.00
2022-09-23T11:46:26.447Z,1628.00
2022-09-23T11:47:26.314Z,1632.00
2022-09-23T11:48:26.552Z,1596.00
2022-09-23T11:49:26.299Z,1520.00
2022-09-23T11:50:26.338Z,1456.00
2022-09-23T11:51:26.556Z,1360.00
2022-09-23T11:52:26.311Z,1300.00
2022-09-23T11:53:29.334Z,1300.00
2022-09-23T11:54:26.256Z,1344.00
2022-09-23T11:55:26.514Z,1380.00
2022-09-23T11:56:34.896Z,1436.00
2022-09-23T11:57:27.811Z,1520.00
2022-09-23T11:58:26.495Z,1612.00
2022-09-23T11:59:35.984Z,1680.00
2022-09-23T12:00:27.244Z,1700.00
2022-09-23T12:01:35.090Z,1724.00
2022-09-23T12:02:30.856Z,1744.00
2022-09-23T12:03:39.486Z,1772.00
2022-09-23T12:04:34.693Z,1864.00
2022-09-23T12:05:26.637Z,2112.00
2022-09-23T12:06:26.151Z,2280.00
2022-09-23T12:07:26.142Z,2256.00
2022-09-23T12:08:29.407Z,2104.00
2022-09-23T12:09:47.302Z,1932.00
2022-09-23T12:10:27.353Z,1764.00
2022-09-23T12:11:27.098Z,1648.00
2022-09-23T12:12:27.228Z,1572.00
2022-09-23T12:13:26.117Z,1504.00
2022-09-23T12:14:27.297Z,1452.00
2022-09-23T12:15:26.069Z,1400.00
2022-09-23T12:16:26.089Z,1384.00
2022-09-23T12:17:26.042Z,1312.00
2022-09-23T12:18:33.164Z,1304.00
2022-09-23T12:19:26.005Z,1292.00
2022-09-23T12:20:27.037Z,1264.00
2022-09-23T12:21:48.674Z,1212.00
2022-09-23T12:22:26.989Z,1216.00
2022-09-23T12:23:26.231Z,1252.00
2022-09-23T12:24:25.950Z,1272.00
2022-09-23T12:25:25.970Z,1268.00
2022-09-23T12:26:25.943Z,1288.00
2022-09-23T12:27:26.222Z,1316.00
2022-09-23T12:28:32.979Z,1312.00
2022-09-23T12:29:26.228Z,1372.00
2022-09-23T12:30:25.948Z,1416.00
2022-09-23T12:31:28.962Z,1428.00
2022-09-23T12:32:26.440Z,1396.00
2022-09-23T12:33:26.117Z,1356.00
2022-09-23T12:34:25.853Z,1328.00
2022-09-23T12:35:26.860Z,1308.00